createdAt,value
2018-05-26T00:01:03.468Z,99382.55
2018-05-26T00:03:32.474Z,99373.08
2018-05-26T00:06:00.820Z,99377.11
2018-05-26T00:08:30.194Z,99371.88
2018-05-26T00:10:58.587Z,99382.55
2018-05-26T00:13:26.980Z,99382.70
2018-05-26T00:15:55.307Z,99380.00
2018-05-26T00:18:23.673Z,99384.93
2018-05-26T00:20:52.558Z,99384.92
2018-05-26T00:23:20.904Z,99392.98
2018-05-26T00:25:49.960Z,99387.36
2018-05-26T00:28:18.626Z,99398.06
2018-05-26T00:30:46.971Z,99391.86
2018-05-26T00:33:15.335Z,99388.19
2018-05-26T00:35:43.663Z,99394.84
2018-05-26T00:38:12.378Z,99393.79
2018-05-26T00:40:40.725Z,99396.11
2018-05-26T00:43:09.205Z,99391.30
2018-05-26T00:45:37.576Z,99395.56
2018-05-26T00:48:05.971Z,99397.45
2018-05-26T00:50:34.882Z,99401.19
2018-05-26T00:53:03.250Z,99391.96
2018-05-26T00:55:31.833Z,99391.88
2018-05-26T00:58:00.625Z,99391.80
2018-05-26T01:00:30.600Z,99395.32
2018-05-26T01:02:58.965Z,99383.84
2018-05-26T01:05:27.622Z,99387.42
2018-05-26T01:07:55.993Z,99384.10
2018-05-26T01:10:24.378Z,99393.70
2018-05-26T01:12:52.747Z,99383.98
2018-05-26T01:15:21.361Z,99380.39
2018-05-26T01:17:50.582Z,99381.80
2018-05-26T01:20:18.909Z,99383.70
2018-05-26T01:22:47.579Z,99375.87
2018-05-26T01:25:16.680Z,99374.44
2018-05-26T01:27:45.037Z,99377.70
2018-05-26T01:30:13.890Z,99380.30
2018-05-26T01:32:42.307Z,99377.18
2018-05-26T01:35:11.047Z,99363.98
2018-05-26T01:37:39.832Z,99371.52
2018-05-26T01:40:09.418Z,99369.56
2018-05-26T01:42:38.575Z,99372.53
2018-05-26T01:45:06.929Z,99373.15
2018-05-26T01:47:35.288Z,99372.80
2018-05-26T01:50:03.684Z,99374.95
2018-05-26T01:52:33.661Z,99379.55
2018-05-26T01:55:02.054Z,99385.78
2018-05-26T01:57:30.417Z,99383.11
2018-05-26T01:59:58.758Z,99380.50
2018-05-26T02:02:27.615Z,99383.32
2018-05-26T02:04:55.977Z,99379.48
2018-05-26T02:07:24.328Z,99378.77
2018-05-26T02:09:52.723Z,99375.87
2018-05-26T02:12:21.185Z,99377.64
2018-05-26T02:14:49.555Z,99373.92
2018-05-26T02:17:17.909Z,99371.51
2018-05-26T02:19:46.434Z,99376.63
2018-05-26T02:22:15.532Z,99369.25
2018-05-26T02:24:44.121Z,99371.37
2018-05-26T02:27:12.458Z,99366.50
2018-05-26T02:29:40.873Z,99367.02
2018-05-26T02:32:09.706Z,99369.27
2018-05-26T02:34:38.116Z,99363.41
2018-05-26T02:37:07.364Z,99362.22
2018-05-26T02:39:36.534Z,99365.98
2018-05-26T02:42:04.928Z,99367.67
2018-05-26T02:44:33.288Z,99366.98
2018-05-26T02:47:02.179Z,99373.98
2018-05-26T02:49:30.584Z,99377.92
2018-05-26T02:51:58.932Z,99381.16
2018-05-26T02:54:28.591Z,99380.80
2018-05-26T02:56:58.161Z,99387.22
2018-05-26T02:59:26.548Z,99387.95
2018-05-26T03:01:55.611Z,99390.80
2018-05-26T03:04:29.521Z,99390.02
2018-05-26T03:07:04.715Z,99396.97
2018-05-26T03:09:38.658Z,99398.03
2018-05-26T03:12:12.521Z,99401.59
2018-05-26T03:14:46.563Z,99407.98
2018-05-26T03:17:15.851Z,99404.24
2018-05-26T03:19:44.207Z,99398.37
2018-05-26T03:22:13.714Z,99397.52
2018-05-26T03:24:42.599Z,99397.63
2018-05-26T03:27:11.157Z,99400.13
2018-05-26T03:29:39.518Z,99405.03
2018-05-26T03:32:08.705Z,99401.56
2018-05-26T03:34:37.081Z,99402.78
2018-05-26T03:37:06.289Z,99402.16
2018-05-26T03:39:34.904Z,99404.30
2018-05-26T03:42:03.238Z,99396.45
2018-05-26T03:44:32.654Z,99405.92
2018-05-26T03:47:01.884Z,99404.72
2018-05-26T03:49:31.380Z,99406.09
2018-05-26T03:51:59.749Z,99416.67
2018-05-26T03:54:40.828Z,99417.27
2018-05-26T03:57:20.864Z,99419.16
2018-05-26T04:02:58.499Z,99421.97
2018-05-26T04:05:27.181Z,99421.20
2018-05-26T04:07:56.648Z,99422.63
2018-05-26T04:10:25.949Z,99428.38
2018-05-26T04:12:54.561Z,99436.13
2018-05-26T04:15:23.228Z,99434.02
2018-05-26T04:17:51.556Z,99440.44
2018-05-26T04:20:19.933Z,99445.78
2018-05-26T04:22:48.438Z,99445.88
2018-05-26T04:25:16.811Z,99452.54
2018-05-26T04:27:45.160Z,99452.19
2018-05-26T04:30:13.532Z,99452.00
2018-05-26T04:32:42.101Z,99456.00
2018-05-26T04:35:11.028Z,99459.25
2018-05-26T04:37:39.371Z,99459.16
2018-05-26T04:40:08.206Z,99453.74
2018-05-26T04:42:36.640Z,99458.95
2018-05-26T04:45:05.010Z,99453.92
2018-05-26T04:47:34.131Z,99457.71
2018-05-26T04:50:03.438Z,99455.45
2018-05-26T04:52:32.255Z,99456.80
2018-05-26T04:55:00.636Z,99458.61
2018-05-26T04:57:28.984Z,99457.20
2018-05-26T04:59:57.347Z,99457.29
2018-05-26T05:02:25.691Z,99456.97
2018-05-26T05:04:54.111Z,99454.08
2018-05-26T05:07:22.456Z,99456.22
2018-05-26T05:09:50.835Z,99455.61
2018-05-26T05:12:19.563Z,99463.96
2018-05-26T05:14:47.966Z,99467.65
2018-05-26T05:17:16.361Z,99466.86
2018-05-26T05:19:45.673Z,99469.55
2018-05-26T05:22:14.741Z,99475.20
2018-05-26T05:24:43.148Z,99471.27
2018-05-26T05:27:12.413Z,99470.34
2018-05-26T05:29:40.844Z,99474.16
2018-05-26T05:32:09.203Z,99480.97
2018-05-26T05:34:37.564Z,99487.81
2018-05-26T05:37:05.956Z,99481.32
2018-05-26T05:39:34.334Z,99487.83
2018-05-26T05:42:03.596Z,99482.41
2018-05-26T05:44:33.046Z,99482.80
2018-05-26T05:47:01.385Z,99484.55
2018-05-26T05:49:29.766Z,99481.89
2018-05-26T05:51:58.160Z,99480.91
2018-05-26T05:54:26.532Z,99483.29
2018-05-26T05:56:54.917Z,99484.75
2018-05-26T05:59:23.333Z,99486.36
2018-05-26T06:01:52.977Z,99487.48
2018-05-26T06:04:22.260Z,99489.32
2018-05-26T06:06:50.634Z,99486.41
2018-05-26T06:09:19.153Z,99486.94
2018-05-26T06:11:47.983Z,99487.27
2018-05-26T06:14:16.704Z,99485.79
2018-05-26T06:16:45.035Z,99485.56
2018-05-26T06:19:13.755Z,99487.16
2018-05-26T06:21:42.541Z,99485.28
2018-05-26T06:24:11.348Z,99489.39
2018-05-26T06:26:39.726Z,99494.38
2018-05-26T06:29:08.113Z,99488.34
2018-05-26T06:31:36.578Z,99489.55
2018-05-26T06:34:05.255Z,99486.42
2018-05-26T06:36:33.944Z,99490.83
2018-05-26T06:39:03.145Z,99491.08
2018-05-26T06:41:32.417Z,99493.19
2018-05-26T06:44:01.488Z,99491.64
2018-05-26T06:46:30.765Z,99496.18
2018-05-26T06:48:59.869Z,99497.35
2018-05-26T06:51:28.225Z,99497.36
2018-05-26T06:53:56.997Z,99496.39
2018-05-26T06:56:26.432Z,99490.34
2018-05-26T06:58:55.191Z,99491.52
2018-05-26T07:01:24.471Z,99486.14
2018-05-26T07:03:52.829Z,99483.48
2018-05-26T07:06:21.231Z,99491.20
2018-05-26T07:08:50.293Z,99485.20
2018-05-26T07:11:18.914Z,99483.58
2018-05-26T07:13:48.881Z,99474.69
2018-05-26T07:16:18.101Z,99480.16
2018-05-26T07:18:47.355Z,99477.08
2018-05-26T07:21:15.728Z,99477.34
2018-05-26T07:23:44.516Z,99473.56
2018-05-26T07:26:13.461Z,99479.37
2018-05-26T07:28:41.797Z,99477.16
2018-05-26T07:31:10.492Z,99477.42
2018-05-26T07:33:39.665Z,99472.37
2018-05-26T07:36:08.196Z,99477.28
2018-05-26T07:38:36.550Z,99469.44
2018-05-26T07:41:04.927Z,99471.81
2018-05-26T07:43:33.266Z,99476.11
2018-05-26T07:46:01.955Z,99472.86
2018-05-26T07:48:30.283Z,99474.30
2018-05-26T07:50:58.641Z,99478.51
2018-05-26T07:53:27.713Z,99478.83
2018-05-26T07:55:56.078Z,99479.23
2018-05-26T07:58:25.050Z,99484.39
2018-05-26T08:00:53.860Z,99486.50
2018-05-26T08:03:22.186Z,99484.33
2018-05-26T08:05:50.559Z,99486.48
2018-05-26T08:08:18.901Z,99483.34
2018-05-26T08:10:47.326Z,99487.06
2018-05-26T08:13:15.686Z,99484.06
2018-05-26T08:15:45.471Z,99479.88
2018-05-26T08:18:13.799Z,99478.48
2018-05-26T08:20:42.635Z,99480.16
2018-05-26T08:23:14.721Z,99478.52
2018-05-26T08:25:43.341Z,99476.70
2018-05-26T08:28:11.983Z,99486.82
2018-05-26T08:30:40.350Z,99485.53
2018-05-26T08:33:09.241Z,99494.38
2018-05-26T08:35:37.591Z,99493.19
2018-05-26T08:38:05.930Z,99493.80
2018-05-26T08:40:34.294Z,99489.82
2018-05-26T08:43:02.626Z,99486.00
2018-05-26T08:45:31.034Z,99486.73
2018-05-26T08:48:00.130Z,99483.99
2018-05-26T08:50:28.504Z,99482.11
2018-05-26T08:52:56.871Z,99491.44
2018-05-26T08:55:25.237Z,99494.98
2018-05-26T08:57:53.588Z,99492.13
2018-05-26T09:00:22.015Z,99498.42
2018-05-26T09:02:50.358Z,99501.00
2018-05-26T09:05:18.724Z,99506.81
2018-05-26T09:07:47.669Z,99510.03
2018-05-26T09:10:16.726Z,99505.73
2018-05-26T09:12:45.281Z,99506.01
2018-05-26T09:15:13.623Z,99499.41
2018-05-26T09:17:41.974Z,99498.43
2018-05-26T09:20:10.388Z,99494.91
2018-05-26T09:22:39.260Z,99495.23
2018-05-26T09:25:08.154Z,99500.63
2018-05-26T09:27:36.489Z,99491.42
2018-05-26T09:30:05.721Z,99490.59
2018-05-26T09:32:34.066Z,99493.64
2018-05-26T09:35:02.752Z,99491.87
2018-05-26T09:37:31.072Z,99493.88
2018-05-26T09:39:59.462Z,99496.36
2018-05-26T09:42:27.802Z,99495.62
2018-05-26T09:44:56.747Z,99488.39
2018-05-26T09:47:25.084Z,99491.34
2018-05-26T09:49:53.411Z,99487.58
2018-05-26T09:52:22.678Z,99488.83
2018-05-26T09:54:51.133Z,99487.30
2018-05-26T09:57:19.801Z,99490.52
2018-05-26T09:59:48.126Z,99492.98
2018-05-26T10:02:16.490Z,99493.41
2018-05-26T10:04:45.998Z,99491.72
2018-05-26T10:07:14.397Z,99492.58
2018-05-26T10:09:43.581Z,99484.56
2018-05-26T10:12:12.223Z,99484.02
2018-05-26T10:14:40.553Z,99482.69
2018-05-26T10:17:08.973Z,99485.76
2018-05-26T10:19:37.394Z,99483.42
2018-05-26T10:22:09.622Z,99482.70
2018-05-26T10:24:37.955Z,99480.48
2018-05-26T10:27:06.345Z,99484.64
2018-05-26T10:29:34.686Z,99485.99
2018-05-26T10:32:03.037Z,99477.66
2018-05-26T10:34:31.771Z,99480.08
2018-05-26T10:37:01.569Z,99480.28
2018-05-26T10:39:30.275Z,99473.67
2018-05-26T10:41:58.756Z,99473.81
2018-05-26T10:44:27.121Z,99475.00
2018-05-26T10:46:55.505Z,99476.52
2018-05-26T10:49:23.909Z,99478.85
2018-05-26T10:51:53.104Z,99475.91
2018-05-26T10:54:21.961Z,99480.41
2018-05-26T10:56:51.244Z,99479.48
2018-05-26T10:59:19.965Z,99474.22
2018-05-26T11:01:48.360Z,99472.94
2018-05-26T11:04:22.988Z,99473.55
2018-05-26T11:06:51.345Z,99469.66
2018-05-26T11:09:20.242Z,99469.14
2018-05-26T11:11:48.598Z,99467.09
2018-05-26T11:14:17.394Z,99471.14
2018-05-26T11:16:46.083Z,99471.90
2018-05-26T11:19:14.407Z,99480.89
2018-05-26T11:21:43.089Z,99474.05
2018-05-26T11:24:11.516Z,99467.03
2018-05-26T11:26:40.393Z,99465.00
2018-05-26T11:29:08.861Z,99462.97
2018-05-26T11:31:37.255Z,99468.13
2018-05-26T11:34:05.574Z,99461.57
2018-05-26T11:36:33.941Z,99461.33
2018-05-26T11:39:04.470Z,99460.77
2018-05-26T11:41:32.846Z,99470.02
2018-05-26T11:44:01.835Z,99459.27
2018-05-26T11:46:30.254Z,99461.25
2018-05-26T11:48:58.590Z,99457.79
2018-05-26T11:51:27.830Z,99465.43
2018-05-26T11:53:56.159Z,99461.86
2018-05-26T11:56:24.524Z,99463.52
2018-05-26T11:58:52.850Z,99460.05
2018-05-26T12:01:21.221Z,99460.61
2018-05-26T12:03:49.569Z,99461.59
2018-05-26T12:06:17.931Z,99460.64
2018-05-26T12:08:46.688Z,99463.19
2018-05-26T12:11:15.147Z,99459.47
2018-05-26T12:13:45.249Z,99466.87
2018-05-26T12:16:13.959Z,99465.77
2018-05-26T12:18:42.292Z,99466.97
2018-05-26T12:21:10.632Z,99461.66
2018-05-26T12:23:38.971Z,99464.66
2018-05-26T12:26:07.404Z,99458.02
2018-05-26T12:28:36.028Z,99460.23
2018-05-26T12:31:04.709Z,99461.53
2018-05-26T12:33:33.749Z,99459.40
2018-05-26T12:36:02.903Z,99456.34
2018-05-26T12:38:31.476Z,99453.71
2018-05-26T12:41:00.359Z,99448.07
2018-05-26T12:43:29.349Z,99450.39
2018-05-26T12:45:57.712Z,99452.73
2018-05-26T12:48:26.050Z,99459.73
2018-05-26T12:50:54.461Z,99454.21
2018-05-26T12:53:23.075Z,99461.86
2018-05-26T12:55:51.441Z,99459.48
2018-05-26T12:58:20.562Z,99454.55
2018-05-26T13:00:49.150Z,99450.95
2018-05-26T13:03:17.530Z,99442.91
2018-05-26T13:05:47.148Z,99448.52
2018-05-26T13:08:15.471Z,99451.52
2018-05-26T13:10:43.881Z,99445.95
2018-05-26T13:13:12.284Z,99439.39
2018-05-26T13:15:40.641Z,99446.97
2018-05-26T13:18:08.980Z,99448.48
2018-05-26T13:20:37.327Z,99445.80
2018-05-26T13:23:05.681Z,99441.92
2018-05-26T13:25:34.033Z,99437.35
2018-05-26T13:28:03.159Z,99438.31
2018-05-26T13:30:31.488Z,99437.48
2018-05-26T13:32:59.895Z,99430.44
2018-05-26T13:35:28.274Z,99429.41
2018-05-26T13:37:56.648Z,99433.02
2018-05-26T13:40:25.004Z,99437.47
2018-05-26T13:42:53.364Z,99431.27
2018-05-26T13:45:22.119Z,99430.84
2018-05-26T13:47:51.204Z,99432.34
2018-05-26T13:50:19.549Z,99437.51
2018-05-26T13:52:49.219Z,99430.30
2018-05-26T13:55:18.521Z,99433.85
2018-05-26T13:57:48.565Z,99433.88
2018-05-26T14:00:17.811Z,99429.11
2018-05-26T14:02:46.996Z,99428.50
2018-05-26T14:05:16.191Z,99428.05
2018-05-26T14:07:44.547Z,99429.20
2018-05-26T14:10:13.155Z,99433.08
2018-05-26T14:12:42.354Z,99424.88
2018-05-26T14:15:11.365Z,99413.84
2018-05-26T14:17:39.721Z,99413.38
2018-05-26T14:20:08.045Z,99415.63
2018-05-26T14:22:38.573Z,99410.89
2018-05-26T14:25:06.951Z,99402.89
2018-05-26T14:27:36.299Z,99404.27
2018-05-26T14:30:04.637Z,99406.22
2018-05-26T14:32:32.985Z,99401.91
2018-05-26T14:35:01.320Z,99391.61
2018-05-26T14:37:29.680Z,99402.06
2018-05-26T14:39:58.008Z,99395.70
2018-05-26T14:42:26.406Z,99398.72
2018-05-26T14:44:54.732Z,99399.75
2018-05-26T14:47:24.728Z,99400.69
2018-05-26T14:49:53.099Z,99401.20
2018-05-26T14:52:21.750Z,99395.73
2018-05-26T14:54:50.069Z,99395.77
2018-05-26T14:57:18.953Z,99396.58
2018-05-26T14:59:47.297Z,99396.40
2018-05-26T15:02:15.993Z,99392.67
2018-05-26T15:04:44.472Z,99394.50
2018-05-26T15:07:13.254Z,99405.08
2018-05-26T15:09:42.056Z,99399.88
2018-05-26T15:12:10.610Z,99394.48
2018-05-26T15:14:38.952Z,99397.59
2018-05-26T15:17:07.350Z,99396.44
2018-05-26T15:19:36.114Z,99396.14
2018-05-26T15:22:05.763Z,99390.75
2018-05-26T15:24:35.192Z,99396.11
2018-05-26T15:27:03.551Z,99390.64
2018-05-26T15:29:34.084Z,99389.72
2018-05-26T15:32:02.476Z,99390.38
2018-05-26T15:34:30.824Z,99390.42
2018-05-26T15:36:59.553Z,99387.60
2018-05-26T15:39:28.270Z,99378.13
2018-05-26T15:41:56.631Z,99385.69
2018-05-26T15:44:25.327Z,99380.44
2018-05-26T15:46:53.969Z,99385.73
2018-05-26T15:49:23.012Z,99385.19
2018-05-26T15:51:51.372Z,99383.59
2018-05-26T15:54:20.071Z,99376.34
2018-05-26T15:56:48.456Z,99379.77
2018-05-26T15:59:16.802Z,99382.51
2018-05-26T16:01:45.566Z,99378.28
2018-05-26T16:04:13.976Z,99379.84
2018-05-26T16:06:42.363Z,99378.22
2018-05-26T16:09:12.332Z,99384.90
2018-05-26T16:11:40.698Z,99373.42
2018-05-26T16:14:09.035Z,99374.31
2018-05-26T16:16:37.397Z,99377.23
2018-05-26T16:19:06.952Z,99372.28
2018-05-26T16:21:35.305Z,99372.87
2018-05-26T16:24:03.639Z,99370.03
2018-05-26T16:26:32.868Z,99371.16
2018-05-26T16:29:01.296Z,99377.42
2018-05-26T16:31:29.650Z,99372.67
2018-05-26T16:33:57.988Z,99373.77
2018-05-26T16:36:26.356Z,99377.99
2018-05-26T16:38:55.247Z,99373.25
2018-05-26T16:41:23.594Z,99375.06
2018-05-26T16:43:52.697Z,99374.84
2018-05-26T16:46:21.060Z,99370.92
2018-05-26T16:48:49.460Z,99372.08
2018-05-26T16:51:17.825Z,99370.89
2018-05-26T16:53:46.189Z,99367.72
2018-05-26T16:56:14.517Z,99370.03
2018-05-26T16:58:42.886Z,99370.77
2018-05-26T17:01:11.264Z,99364.36
2018-05-26T17:03:39.623Z,99368.80
2018-05-26T17:06:08.441Z,99367.20
2018-05-26T17:08:36.836Z,99366.77
2018-05-26T17:11:06.424Z,99370.76
2018-05-26T17:13:34.906Z,99368.75
2018-05-26T17:16:03.243Z,99366.52
2018-05-26T17:18:31.597Z,99375.98
2018-05-26T17:21:00.238Z,99375.39
2018-05-26T17:23:28.601Z,99374.69
2018-05-26T17:25:56.929Z,99374.59
2018-05-26T17:28:26.189Z,99374.30
2018-05-26T17:30:54.538Z,99374.06
2018-05-26T17:33:23.799Z,99378.05
2018-05-26T17:35:52.247Z,99381.08
2018-05-26T17:38:21.565Z,99381.69
2018-05-26T17:40:49.909Z,99381.28
2018-05-26T17:43:18.301Z,99383.55
2018-05-26T17:45:46.660Z,99386.20
2018-05-26T17:48:15.643Z,99383.06
2018-05-26T17:50:44.019Z,99381.98
2018-05-26T17:53:12.748Z,99378.02
2018-05-26T17:55:41.997Z,99375.08
2018-05-26T17:58:10.371Z,99371.53
2018-05-26T18:00:39.391Z,99375.29
2018-05-26T18:03:07.994Z,99377.07
2018-05-26T18:05:36.631Z,99375.94
2018-05-26T18:08:05.364Z,99373.83
2018-05-26T18:10:33.697Z,99376.87
2018-05-26T18:13:02.915Z,99370.98
2018-05-26T18:15:31.257Z,99370.01
2018-05-26T18:17:59.665Z,99372.42
2018-05-26T18:20:28.052Z,99373.86
2018-05-26T18:22:56.394Z,99368.30
2018-05-26T18:25:25.129Z,99370.71
2018-05-26T18:27:53.814Z,99370.05
2018-05-26T18:30:22.161Z,99370.05
2018-05-26T18:32:51.444Z,99370.36
2018-05-26T18:35:20.251Z,99370.15
2018-05-26T18:37:48.610Z,99370.67
2018-05-26T18:40:16.924Z,99372.56
2018-05-26T18:42:45.806Z,99365.41
2018-05-26T18:45:14.365Z,99361.56
2018-05-26T18:47:42.753Z,99363.46
2018-05-26T18:50:11.524Z,99370.94
2018-05-26T18:52:39.892Z,99377.19
2018-05-26T18:55:08.284Z,99376.58
2018-05-26T18:57:37.115Z,99378.61
2018-05-26T19:00:07.406Z,99379.00
2018-05-26T19:02:36.545Z,99375.75
2018-05-26T19:05:04.892Z,99375.61
2018-05-26T19:07:33.514Z,99381.13
2018-05-26T19:10:02.566Z,99389.48
2018-05-26T19:12:31.297Z,99394.05
2018-05-26T19:14:59.626Z,99400.52
2018-05-26T19:17:27.997Z,99404.34
2018-05-26T19:19:56.312Z,99410.03
2018-05-26T19:22:24.672Z,99410.48
2018-05-26T19:24:53.395Z,99403.98
2018-05-26T19:27:21.776Z,99412.45
2018-05-26T19:29:50.106Z,99414.87
2018-05-26T19:32:18.491Z,99420.61
2018-05-26T19:34:46.943Z,99420.05
2018-05-26T19:37:15.377Z,99421.50
2018-05-26T19:39:43.704Z,99422.52
2018-05-26T19:42:12.065Z,99415.19
2018-05-26T19:44:41.193Z,99419.75
2018-05-26T19:47:09.533Z,99422.42
2018-05-26T19:49:37.931Z,99422.28
2018-05-26T19:52:06.318Z,99421.49
2018-05-26T19:54:34.744Z,99426.02
2018-05-26T19:57:03.934Z,99432.75
2018-05-26T19:59:32.311Z,99433.66
2018-05-26T20:02:00.922Z,99431.16
2018-05-26T20:04:29.292Z,99433.78
2018-05-26T20:06:57.665Z,99429.22
2018-05-26T20:09:26.044Z,99432.39
2018-05-26T20:11:54.815Z,99434.35
2018-05-26T20:14:23.173Z,99441.27
2018-05-26T20:16:51.618Z,99435.44
2018-05-26T20:19:19.970Z,99433.86
2018-05-26T20:21:48.341Z,99441.25
2018-05-26T20:24:16.680Z,99440.16
2018-05-26T20:26:45.010Z,99432.02
2018-05-26T20:29:13.372Z,99439.29
2018-05-26T20:31:41.698Z,99440.89
2018-05-26T20:34:10.102Z,99436.44
2018-05-26T20:36:38.540Z,99437.97
2018-05-26T20:39:07.577Z,99437.46
2018-05-26T20:41:37.341Z,99436.28
2018-05-26T20:44:05.716Z,99432.14
2018-05-26T20:46:34.058Z,99432.66
2018-05-26T20:49:03.248Z,99433.34
2018-05-26T20:51:31.573Z,99435.47
2018-05-26T20:53:59.937Z,99436.97
2018-05-26T20:56:28.831Z,99437.84
2018-05-26T20:58:57.187Z,99438.41
2018-05-26T21:01:26.445Z,99440.27
2018-05-26T21:03:55.443Z,99439.30
2018-05-26T21:06:24.173Z,99441.77
2018-05-26T21:08:52.521Z,99448.83
2018-05-26T21:11:20.862Z,99443.20
2018-05-26T21:13:49.230Z,99455.48
2018-05-26T21:16:17.635Z,99457.67
2018-05-26T21:18:46.240Z,99446.38
2018-05-26T21:21:14.655Z,99455.39
2018-05-26T21:23:42.985Z,99455.41
2018-05-26T21:26:13.082Z,99455.30
2018-05-26T21:28:42.164Z,99454.73
2018-05-26T21:31:10.492Z,99453.13
2018-05-26T21:33:38.836Z,99457.33
2018-05-26T21:36:07.185Z,99460.45
2018-05-26T21:38:35.866Z,99456.39
2018-05-26T21:41:04.234Z,99458.53
2018-05-26T21:43:33.510Z,99456.13
2018-05-26T21:46:01.847Z,99457.16
2018-05-26T21:48:30.817Z,99459.27
2018-05-26T21:50:59.184Z,99453.16
2018-05-26T21:53:27.887Z,99451.23
2018-05-26T21:55:56.239Z,99447.34
2018-05-26T21:58:25.144Z,99447.11
2018-05-26T22:00:55.018Z,99448.34
2018-05-26T22:03:23.935Z,99448.33
2018-05-26T22:05:52.574Z,99442.89
2018-05-26T22:08:21.336Z,99441.08
2018-05-26T22:10:49.671Z,99436.12
2018-05-26T22:13:18.073Z,99442.91
2018-05-26T22:15:46.408Z,99437.48
2018-05-26T22:18:14.821Z,99443.24
2018-05-26T22:20:43.114Z,99436.84
2018-05-26T22:23:11.495Z,99437.00
2018-05-26T22:25:39.834Z,99432.84
2018-05-26T22:28:08.191Z,99434.61
2018-05-26T22:30:36.850Z,99432.50
2018-05-26T22:33:05.920Z,99423.13
2018-05-26T22:35:34.560Z,99432.41
2018-05-26T22:38:03.066Z,99432.04
2018-05-26T22:40:31.762Z,99434.69
2018-05-26T22:43:00.484Z,99432.50
2018-05-26T22:45:28.824Z,99435.88
2018-05-26T22:47:57.892Z,99435.79
2018-05-26T22:50:26.639Z,99432.84
2018-05-26T22:52:55.975Z,99426.95
2018-05-26T22:55:24.762Z,99429.47
2018-05-26T22:57:53.098Z,99428.38
2018-05-26T23:00:24.456Z,99434.31
2018-05-26T23:02:53.723Z,99437.14
2018-05-26T23:05:22.083Z,99436.89
2018-05-26T23:07:50.405Z,99430.48
2018-05-26T23:10:19.525Z,99427.87
2018-05-26T23:12:47.957Z,99426.86
2018-05-26T23:15:17.469Z,99430.06
2018-05-26T23:17:45.817Z,99418.34
2018-05-26T23:20:14.470Z,99421.17
2018-05-26T23:22:42.811Z,99417.50
2018-05-26T23:25:11.812Z,99411.44
2018-05-26T23:27:41.010Z,99419.98
2018-05-26T23:30:09.905Z,99415.27
2018-05-26T23:32:38.598Z,99412.52
2018-05-26T23:35:06.974Z,99417.66
2018-05-26T23:37:36.250Z,99411.66
2018-05-26T23:40:04.850Z,99408.88
2018-05-26T23:42:33.206Z,99403.73
2018-05-26T23:45:01.932Z,99400.34
2018-05-26T23:47:30.315Z,99398.13
2018-05-26T23:49:58.761Z,99389.30
2018-05-26T23:52:27.122Z,99388.17
2018-05-26T23:54:55.490Z,99390.09
2018-05-26T23:57:23.823Z,99383.92
2018-05-26T23:59:52.814Z,99385.23
